createdAt,value
2019-06-20T00:00:25.469Z,85.22
2019-06-20T00:02:55.471Z,68.83
2019-06-20T00:05:26.194Z,67.55
2019-06-20T00:07:55.602Z,74.80
2019-06-20T00:10:26.144Z,80.32
2019-06-20T00:13:00.419Z,68.87
2019-06-20T00:15:27.192Z,60.63
2019-06-20T00:17:56.701Z,73.28
2019-06-20T00:20:26.322Z,86.20
2019-06-20T00:22:55.912Z,106.50
2019-06-20T00:25:25.521Z,92.25
2019-06-20T00:27:56.104Z,77.60
2019-06-20T00:30:25.750Z,72.47
2019-06-20T00:32:55.880Z,61.60
2019-06-20T00:35:25.364Z,65.32
2019-06-20T00:37:55.099Z,56.98
2019-06-20T00:40:24.793Z,77.20
2019-06-20T00:42:55.521Z,58.30
2019-06-20T00:45:25.230Z,68.60
2019-06-20T00:47:54.695Z,88.52
2019-06-20T00:50:25.207Z,76.28
2019-06-20T00:52:54.771Z,74.53
2019-06-20T00:55:24.389Z,99.30
2019-06-20T00:57:53.805Z,83.42
2019-06-20T01:00:23.703Z,68.97
2019-06-20T01:02:53.309Z,74.97
2019-06-20T01:05:22.965Z,62.98
2019-06-20T01:07:52.405Z,55.70
2019-06-20T01:10:21.927Z,53.70
2019-06-20T01:12:51.424Z,56.65
2019-06-20T01:15:20.940Z,91.95
2019-06-20T01:17:50.537Z,87.70
2019-06-20T01:20:20.242Z,80.07
2019-06-20T01:22:49.778Z,90.77
2019-06-20T01:25:23.371Z,77.50
2019-06-20T01:27:52.853Z,68.10
2019-06-20T01:30:23.586Z,43.38
2019-06-20T01:32:53.091Z,52.35
2019-06-20T01:35:22.592Z,40.75
2019-06-20T01:37:52.199Z,48.35
2019-06-20T01:40:21.714Z,41.48
2019-06-20T01:42:51.239Z,39.08
2019-06-20T01:45:20.928Z,40.60
2019-06-20T01:47:50.466Z,39.15
2019-06-20T01:50:20.346Z,43.50
2019-06-20T01:52:49.850Z,38.80
2019-06-20T01:55:19.555Z,40.43
2019-06-20T01:57:49.250Z,38.00
2019-06-20T02:00:21.844Z,34.88
2019-06-20T02:02:51.346Z,32.78
2019-06-20T02:05:20.824Z,31.77
2019-06-20T02:07:50.453Z,45.10
2019-06-20T02:10:20.266Z,77.17
2019-06-20T02:12:49.976Z,59.73
2019-06-20T02:15:19.688Z,62.20
2019-06-20T02:17:49.217Z,70.52
2019-06-20T02:20:21.870Z,72.30
2019-06-20T02:22:51.486Z,47.88
2019-06-20T02:25:21.191Z,47.27
2019-06-20T02:27:50.796Z,42.48
2019-06-20T02:30:20.815Z,41.20
2019-06-20T02:32:50.530Z,45.00
2019-06-20T02:35:20.023Z,34.40
2019-06-20T02:37:50.654Z,40.40
2019-06-20T02:40:20.274Z,41.73
2019-06-20T02:42:49.893Z,36.98
2019-06-20T02:45:19.824Z,41.40
2019-06-20T02:47:49.368Z,34.67
2019-06-20T02:50:20.226Z,34.98
2019-06-20T02:52:49.944Z,36.08
2019-06-20T02:55:19.549Z,38.25
2019-06-20T02:57:49.012Z,37.90
2019-06-20T03:00:21.627Z,30.72
2019-06-20T03:02:51.049Z,45.98
2019-06-20T03:05:20.630Z,45.98
2019-06-20T03:07:50.142Z,48.35
2019-06-20T03:10:20.017Z,40.08
2019-06-20T03:12:49.604Z,31.37
2019-06-20T03:15:19.150Z,43.00
2019-06-20T03:17:48.667Z,40.75
2019-06-20T03:20:18.224Z,50.43
2019-06-20T03:22:47.748Z,49.65
2019-06-20T03:25:18.856Z,37.93
2019-06-20T03:27:48.527Z,44.95
2019-06-20T03:30:18.486Z,31.12
2019-06-20T03:32:48.048Z,59.00
2019-06-20T03:35:17.561Z,49.77
2019-06-20T03:37:50.119Z,44.75
2019-06-20T03:40:18.409Z,40.45
2019-06-20T03:42:47.901Z,35.40
2019-06-20T03:45:17.622Z,26.77
2019-06-20T03:47:47.016Z,30.68
2019-06-20T03:50:16.695Z,31.57
2019-06-20T03:52:47.877Z,34.45
2019-06-20T03:55:17.490Z,25.23
2019-06-20T03:57:47.074Z,34.92
2019-06-20T04:00:18.217Z,20.95
2019-06-20T04:02:47.721Z,30.05
2019-06-20T04:05:17.440Z,24.85
2019-06-20T04:07:46.952Z,26.57
2019-06-20T04:10:16.512Z,26.40
2019-06-20T04:12:46.060Z,27.93
2019-06-20T04:15:19.411Z,24.18
2019-06-20T04:17:46.679Z,24.57
2019-06-20T04:20:18.067Z,23.00
2019-06-20T04:22:47.686Z,26.23
2019-06-20T04:25:17.377Z,19.98
2019-06-20T04:27:46.867Z,23.83
2019-06-20T04:30:17.572Z,21.23
2019-06-20T04:32:47.127Z,20.62
2019-06-20T04:35:16.596Z,22.00
2019-06-20T04:37:46.304Z,26.87
2019-06-20T04:40:16.940Z,28.90
2019-06-20T04:42:46.559Z,20.05
2019-06-20T04:45:17.708Z,20.55
2019-06-20T04:47:47.246Z,22.42
2019-06-20T04:50:16.823Z,22.85
2019-06-20T04:52:46.434Z,20.48
2019-06-20T04:55:16.139Z,19.50
2019-06-20T04:57:45.756Z,23.42
2019-06-20T05:00:15.544Z,20.57
2019-06-20T05:02:45.165Z,20.43
2019-06-20T05:05:15.320Z,19.02
2019-06-20T05:07:44.887Z,15.32
2019-06-20T05:10:14.574Z,18.60
2019-06-20T05:12:44.105Z,20.95
2019-06-20T05:15:14.121Z,20.68
2019-06-20T05:17:43.629Z,23.32
2019-06-20T05:20:13.255Z,17.60
2019-06-20T05:22:42.745Z,16.93
2019-06-20T05:25:13.622Z,21.80
2019-06-20T05:27:43.201Z,15.98
2019-06-20T05:30:14.105Z,17.42
2019-06-20T05:32:43.711Z,17.50
2019-06-20T05:35:15.574Z,17.07
2019-06-20T05:37:45.191Z,18.25
2019-06-20T05:40:15.084Z,14.55
2019-06-20T05:42:44.539Z,19.27
2019-06-20T05:45:14.623Z,16.52
2019-06-20T05:47:45.158Z,19.90
2019-06-20T05:50:15.782Z,19.80
2019-06-20T05:52:45.358Z,17.65
2019-06-20T05:55:15.404Z,18.05
2019-06-20T05:57:45.074Z,23.38
2019-06-20T06:00:16.065Z,17.07
2019-06-20T06:02:45.563Z,20.00
2019-06-20T06:05:15.149Z,16.00
2019-06-20T06:07:44.671Z,18.55
2019-06-20T06:10:14.588Z,18.40
2019-06-20T06:12:45.174Z,20.37
2019-06-20T06:15:15.134Z,15.75
2019-06-20T06:17:44.696Z,15.68
2019-06-20T06:20:16.194Z,14.30
2019-06-20T06:22:45.697Z,13.45
2019-06-20T06:25:15.435Z,18.45
2019-06-20T06:27:44.886Z,18.75
2019-06-20T06:30:14.907Z,16.45
2019-06-20T06:32:44.311Z,14.65
2019-06-20T06:35:14.350Z,15.75
2019-06-20T06:37:44.048Z,15.05
2019-06-20T06:40:14.992Z,14.50
2019-06-20T06:42:44.530Z,15.45
2019-06-20T06:45:14.632Z,17.60
2019-06-20T06:47:44.127Z,16.15
2019-06-20T06:50:14.274Z,18.62
2019-06-20T06:52:43.889Z,13.62
2019-06-20T06:55:13.780Z,14.63
2019-06-20T06:57:43.353Z,14.53
2019-06-20T07:00:15.176Z,15.60
2019-06-20T07:02:44.784Z,14.93
2019-06-20T07:05:14.439Z,14.33
2019-06-20T07:07:44.046Z,13.90
2019-06-20T07:10:13.655Z,11.57
2019-06-20T07:12:43.494Z,12.82
2019-06-20T07:15:16.302Z,14.70
2019-06-20T07:17:45.869Z,16.93
2019-06-20T07:20:16.027Z,12.80
2019-06-20T07:22:45.507Z,13.58
2019-06-20T07:25:15.470Z,15.08
2019-06-20T07:27:45.033Z,14.87
2019-06-20T07:30:16.656Z,14.18
2019-06-20T07:32:46.269Z,17.07
2019-06-20T07:35:16.240Z,13.53
2019-06-20T07:37:45.741Z,22.00
2019-06-20T07:40:16.516Z,12.20
2019-06-20T07:42:47.249Z,11.65
2019-06-20T07:45:17.271Z,15.23
2019-06-20T07:47:46.916Z,21.70
2019-06-20T07:50:16.931Z,13.88
2019-06-20T07:53:00.947Z,17.25
2019-06-20T07:55:17.699Z,15.50
2019-06-20T07:57:47.248Z,13.48
2019-06-20T08:00:17.268Z,12.25
2019-06-20T08:02:46.768Z,19.40
2019-06-20T08:05:16.668Z,12.85
2019-06-20T08:07:46.196Z,17.92
2019-06-20T08:10:18.378Z,16.90
2019-06-20T08:12:47.795Z,13.18
2019-06-20T08:15:19.117Z,16.48
2019-06-20T08:17:48.607Z,17.07
2019-06-20T08:20:18.842Z,11.93
2019-06-20T08:22:48.232Z,14.07
2019-06-20T08:25:18.030Z,12.73
2019-06-20T08:27:49.179Z,11.25
2019-06-20T08:30:21.538Z,13.03
2019-06-20T08:32:51.146Z,11.57
2019-06-20T08:35:23.002Z,15.95
2019-06-20T08:37:53.543Z,25.23
2019-06-20T08:40:24.854Z,20.30
2019-06-20T08:42:55.316Z,19.80
2019-06-20T08:45:27.842Z,29.02
2019-06-20T08:47:58.306Z,20.17
2019-06-20T08:50:28.109Z,12.65
2019-06-20T08:52:58.603Z,14.47
2019-06-20T08:55:29.080Z,14.93
2019-06-20T08:57:59.724Z,14.43
2019-06-20T09:00:33.741Z,11.75
2019-06-20T09:05:33.267Z,13.05
2019-06-20T09:10:35.684Z,12.03
2019-06-20T09:13:05.898Z,14.20
2019-06-20T09:15:35.702Z,13.58
2019-06-20T09:18:05.841Z,13.65
2019-06-20T09:20:35.917Z,12.43
2019-06-20T09:23:05.837Z,16.30
2019-06-20T09:25:37.230Z,12.93
2019-06-20T09:28:07.312Z,16.15
2019-06-20T09:30:37.543Z,15.20
2019-06-20T09:33:07.179Z,12.43
2019-06-20T09:35:36.835Z,12.00
2019-06-20T09:38:06.548Z,11.90
2019-06-20T09:40:36.258Z,10.35
2019-06-20T09:43:06.134Z,15.32
2019-06-20T09:45:35.795Z,12.50
2019-06-20T09:48:05.343Z,13.35
2019-06-20T09:50:36.120Z,9.53
2019-06-20T09:53:05.738Z,14.20
2019-06-20T09:55:36.584Z,11.05
2019-06-20T09:58:07.922Z,16.93
2019-06-20T10:00:37.965Z,14.65
2019-06-20T10:03:07.529Z,11.83
2019-06-20T10:05:37.145Z,9.95
2019-06-20T10:08:06.683Z,10.70
2019-06-20T10:10:36.673Z,11.48
2019-06-20T10:13:06.080Z,12.20
2019-06-20T10:15:37.607Z,11.38
2019-06-20T10:18:07.594Z,11.03
2019-06-20T10:20:38.983Z,11.78
2019-06-20T10:23:08.823Z,14.73
2019-06-20T10:25:39.529Z,13.20
2019-06-20T10:28:09.082Z,18.07
2019-06-20T10:30:38.528Z,16.85
2019-06-20T10:33:10.665Z,15.30
2019-06-20T10:35:41.726Z,11.93
2019-06-20T10:38:12.111Z,16.48
2019-06-20T10:40:41.919Z,9.78
2019-06-20T10:43:11.582Z,18.67
2019-06-20T10:45:44.076Z,17.67
2019-06-20T10:48:13.185Z,25.25
2019-06-20T10:50:46.246Z,27.62
2019-06-20T10:53:15.998Z,35.00
2019-06-20T10:55:46.964Z,19.40
2019-06-20T10:58:16.917Z,19.12
2019-06-20T11:00:46.525Z,16.93
2019-06-20T11:03:16.687Z,41.40
2019-06-20T11:05:48.057Z,13.58
2019-06-20T11:08:19.256Z,17.55
2019-06-20T11:10:50.824Z,16.97
2019-06-20T11:13:20.682Z,11.90
2019-06-20T11:15:53.810Z,20.68
2019-06-20T11:18:23.704Z,21.30
2019-06-20T11:20:53.495Z,23.20
2019-06-20T11:23:23.291Z,16.82
2019-06-20T11:25:53.329Z,43.05
2019-06-20T11:28:23.112Z,13.38
2019-06-20T11:30:59.949Z,11.33
2019-06-20T11:33:24.891Z,35.10
2019-06-20T11:35:54.727Z,18.32
2019-06-20T11:38:24.575Z,71.33
2019-06-20T20:13:08.211Z,16.17
2019-06-20T20:15:37.729Z,20.23
2019-06-20T20:18:07.431Z,18.40
2019-06-20T20:20:37.033Z,17.35
2019-06-20T20:23:06.851Z,22.58
2019-06-20T20:25:36.356Z,19.92
2019-06-20T20:28:05.846Z,16.57
2019-06-20T20:30:35.373Z,16.45
2019-06-20T20:33:05.588Z,16.57
2019-06-20T20:35:36.161Z,17.57
2019-06-20T20:38:05.808Z,17.67
2019-06-20T20:40:35.409Z,19.27
2019-06-20T20:43:04.879Z,15.63
2019-06-20T20:45:34.432Z,16.55
2019-06-20T20:48:04.476Z,16.20
2019-06-20T20:50:33.944Z,15.50
2019-06-20T20:53:03.429Z,18.10
2019-06-20T20:55:32.903Z,16.25
2019-06-20T20:58:02.426Z,18.62
2019-06-20T21:00:35.055Z,14.87
2019-06-20T21:03:07.306Z,16.97
2019-06-20T21:05:50.693Z,17.82
2019-06-20T21:08:07.246Z,17.48
2019-06-20T21:10:36.708Z,20.40
2019-06-20T21:13:06.088Z,15.38
2019-06-20T21:15:35.583Z,15.85
2019-06-20T21:18:05.172Z,18.82
2019-06-20T21:20:34.674Z,16.75
2019-06-20T21:23:04.172Z,18.57
2019-06-20T21:25:33.645Z,17.87
2019-06-20T21:28:03.181Z,16.32
2019-06-20T21:30:32.896Z,16.35
2019-06-20T21:33:02.433Z,18.62
2019-06-20T21:35:31.907Z,16.93
2019-06-20T21:38:01.405Z,17.40
2019-06-20T21:40:31.909Z,15.98
2019-06-20T21:43:01.437Z,17.98
2019-06-20T21:45:30.835Z,16.42
2019-06-20T21:48:01.515Z,17.30
2019-06-20T21:50:31.028Z,16.00
2019-06-20T21:53:00.507Z,16.95
2019-06-20T21:55:29.971Z,18.98
2019-06-20T21:57:59.489Z,15.13
2019-06-20T22:00:33.709Z,15.63
2019-06-20T22:03:05.934Z,17.35
2019-06-20T22:05:35.476Z,18.60
2019-06-20T22:08:05.825Z,16.70
2019-06-20T22:10:35.307Z,18.65
2019-06-20T22:13:05.531Z,16.80
2019-06-20T22:15:35.107Z,19.90
2019-06-20T22:18:04.955Z,21.62
2019-06-20T22:20:34.554Z,18.40
2019-06-20T22:23:04.362Z,18.42
2019-06-20T22:25:34.077Z,18.32
2019-06-20T22:28:04.188Z,19.85
2019-06-20T22:30:36.663Z,17.60
2019-06-20T22:33:06.200Z,17.48
2019-06-20T22:35:35.785Z,20.80
2019-06-20T22:38:05.396Z,20.57
2019-06-20T22:40:34.911Z,20.20
2019-06-20T22:43:04.628Z,22.60
2019-06-20T22:45:35.339Z,24.70
2019-06-20T22:48:06.345Z,27.95
2019-06-20T22:50:35.981Z,25.62
2019-06-20T22:53:05.796Z,31.27
2019-06-20T22:55:36.222Z,30.95
2019-06-20T22:58:06.695Z,24.98
2019-06-20T23:00:36.385Z,31.37
2019-06-20T23:03:06.453Z,27.67
2019-06-20T23:05:36.170Z,31.77
2019-06-20T23:08:05.998Z,29.98
2019-06-20T23:10:35.605Z,28.05
2019-06-20T23:13:05.419Z,28.38
2019-06-20T23:15:34.925Z,23.92
2019-06-20T23:18:04.944Z,23.20
2019-06-20T23:20:34.543Z,25.35
2019-06-20T23:23:04.262Z,24.90
2019-06-20T23:25:34.591Z,28.38
2019-06-20T23:28:04.591Z,24.77
2019-06-20T23:30:34.204Z,24.05
2019-06-20T23:33:03.807Z,28.17
2019-06-20T23:35:33.712Z,28.47
2019-06-20T23:38:03.265Z,24.65
2019-06-20T23:40:32.936Z,27.32
2019-06-20T23:43:02.406Z,27.98
2019-06-20T23:45:31.956Z,30.80
2019-06-20T23:48:01.708Z,33.73
2019-06-20T23:50:31.285Z,29.98
2019-06-20T23:53:02.404Z,24.35
2019-06-20T23:55:32.626Z,31.70
2019-06-20T23:58:02.131Z,29.23
